Time;durP1;ratioP1;P1;durP2;ratioP2;P2;SDS_P1;SDS_P2;PMS_P1;PMS_P2;Temp;Humidity;BMP_temperature;BMP_pressure;BME280_temperature;BME280_humidity;BME280_pressure;Samples;Min_cycle;Max_cycle;Signal;HPM_P1;HPM_P2
2021/01/15 00:00:19;;;;;;;1.63;1.53;;;1.80;99.90;;;;;;5003749;28;20223;-92
2021/01/15 00:02:44;;;;;;;1.90;1.80;;;1.80;99.90;;;;;;4989373;28;20200;-91
2021/01/15 00:05:10;;;;;;;1.40;1.30;;;1.60;99.90;;;;;;4988625;28;20196;-92
2021/01/15 00:07:36;;;;;;;1.97;1.87;;;1.60;99.90;;;;;;4988562;28;20223;-92
2021/01/15 00:10:03;;;;;;;3.63;2.30;;;1.50;99.90;;;;;;4971044;28;20239;-92
2021/01/15 00:12:28;;;;;;;2.00;1.73;;;1.50;99.90;;;;;;4987863;28;20218;-91
2021/01/15 00:14:54;;;;;;;2.03;1.83;;;1.60;99.90;;;;;;4987758;28;20192;-91
2021/01/15 00:17:20;;;;;;;2.73;2.50;;;1.60;99.90;;;;;;4973866;28;20334;-92
2021/01/15 00:19:45;;;;;;;2.20;2.00;;;1.60;99.90;;;;;;4970693;28;20219;-90
2021/01/15 00:22:12;;;;;;;1.83;1.73;;;1.70;99.90;;;;;;5005653;28;20215;-92
2021/01/15 00:24:37;;;;;;;1.93;1.80;;;1.70;99.90;;;;;;5004784;28;20274;-92
2021/01/15 00:27:03;;;;;;;2.87;2.67;;;1.80;99.90;;;;;;5003059;28;20599;-91
2021/01/15 00:29:29;;;;;;;1.87;1.77;;;1.80;99.90;;;;;;4988629;28;20195;-91
2021/01/15 00:31:55;;;;;;;1.73;1.63;;;1.80;99.90;;;;;;4970997;28;20576;-92
2021/01/15 00:34:20;;;;;;;1.50;1.23;;;1.80;99.90;;;;;;4987929;28;20688;-91
2021/01/15 00:36:47;;;;;;;1.70;1.60;;;1.70;99.90;;;;;;4986502;28;20267;-92
2021/01/15 00:39:14;;;;;;;4.37;2.37;;;1.60;99.90;;;;;;5004216;28;20227;-92
2021/01/15 00:41:41;;;;;;;2.17;1.63;;;1.50;99.90;;;;;;4985532;28;20203;-91
2021/01/15 00:44:09;;;;;;;1.70;1.60;;;1.50;99.90;;;;;;4987609;28;20195;-91
2021/01/15 00:46:35;;;;;;;2.40;1.40;;;1.50;99.90;;;;;;4970358;28;20321;-92
2021/01/15 00:49:06;;;;;;;0.87;0.87;;;1.50;99.90;;;;;;4987219;28;20211;-92
2021/01/15 00:51:33;;;;;;;1.77;1.67;;;1.60;99.90;;;;;;5003753;28;20219;-90
2021/01/15 00:53:59;;;;;;;4.43;3.33;;;1.60;99.90;;;;;;4986754;28;20219;-92
2021/01/15 00:56:25;;;;;;;1.43;1.33;;;1.50;99.90;;;;;;4988018;28;20203;-91
2021/01/15 00:58:51;;;;;;;1.47;1.37;;;1.50;99.90;;;;;;4987074;28;20234;-91
2021/01/15 01:01:19;;;;;;;2.77;2.57;;;1.60;99.90;;;;;;4971291;28;20207;-92
2021/01/15 01:03:45;;;;;;;2.10;1.97;;;1.60;99.90;;;;;;4986912;28;20226;-91
2021/01/15 01:06:16;;;;;;;1.43;1.10;;;1.60;99.90;;;;;;4970886;28;20227;-90
2021/01/15 01:08:42;;;;;;;2.60;2.30;;;1.60;99.90;;;;;;4970500;28;20351;-92
2021/01/15 01:11:19;;;;;;;4.23;3.20;;;1.60;99.90;;;;;;4986819;28;20255;-92
2021/01/15 01:13:49;;;;;;;1.77;1.53;;;1.60;99.90;;;;;;5004127;28;20341;-92
2021/01/15 01:16:15;;;;;;;1.17;1.10;;;1.50;99.90;;;;;;5004040;28;20223;-90
2021/01/15 01:18:43;;;;;;;2.10;1.77;;;1.50;99.90;;;;;;4984425;28;20269;-91
2021/01/15 01:21:09;;;;;;;2.30;2.07;;;1.50;99.90;;;;;;4985900;28;20291;-92
2021/01/15 01:23:35;;;;;;;2.67;2.23;;;1.50;99.90;;;;;;4971944;28;20179;-91
2021/01/15 01:26:02;;;;;;;2.13;1.93;;;1.50;99.90;;;;;;4986263;28;20668;-93
2021/01/15 01:28:28;;;;;;;0.93;0.90;;;1.60;99.90;;;;;;4971023;28;20211;-92
2021/01/15 01:30:54;;;;;;;2.07;1.87;;;1.60;99.90;;;;;;5002868;28;20215;-92
2021/01/15 01:33:20;;;;;;;2.13;2.03;;;1.60;99.90;;;;;;4985699;28;20258;-91
2021/01/15 01:35:46;;;;;;;2.07;1.93;;;1.60;99.90;;;;;;4970620;28;20266;-92
2021/01/15 01:38:12;;;;;;;1.87;1.73;;;1.60;99.90;;;;;;4988802;28;20207;-92
2021/01/15 01:40:37;;;;;;;1.23;1.17;;;1.60;99.90;;;;;;4985979;28;20297;-91
2021/01/15 01:43:03;;;;;;;1.57;1.47;;;1.60;99.90;;;;;;4984070;28;20582;-91
2021/01/15 01:45:29;;;;;;;1.40;1.40;;;1.50;99.90;;;;;;4985925;28;20273;-92
2021/01/15 01:47:57;;;;;;;3.53;1.97;;;1.40;99.90;;;;;;4985568;28;20186;-92
2021/01/15 01:50:24;;;;;;;2.37;2.20;;;1.50;99.90;;;;;;4987738;28;20196;-91
2021/01/15 01:52:50;;;;;;;2.40;2.30;;;1.50;99.90;;;;;;5002594;28;20219;-91
2021/01/15 01:55:18;;;;;;;1.50;1.40;;;1.50;99.90;;;;;;5003562;28;20250;-92
2021/01/15 01:57:44;;;;;;;2.27;1.90;;;1.60;99.90;;;;;;5002274;28;20274;-91
2021/01/15 02:00:12;;;;;;;2.30;0.93;;;1.60;99.90;;;;;;4985084;28;20698;-92
2021/01/15 02:02:38;;;;;;;3.00;2.50;;;1.50;99.90;;;;;;4969662;28;20192;-90
2021/01/15 02:05:05;;;;;;;3.00;2.23;;;1.50;99.90;;;;;;4970866;28;20679;-92
2021/01/15 02:07:32;;;;;;;1.03;1.00;;;1.50;99.90;;;;;;4985769;28;20222;-91
2021/01/15 02:10:19;;;;;;;2.00;1.77;;;1.60;99.90;;;;;;4986150;28;20564;-91
2021/01/15 02:12:56;;;;;;;2.10;1.87;;;1.50;99.90;;;;;;5003412;28;20771;-91
2021/01/15 02:15:28;;;;;;;2.03;1.83;;;1.50;99.90;;;;;;5003327;28;20301;-91
2021/01/15 02:18:01;;;;;;;1.63;1.53;;;1.50;99.90;;;;;;4986140;28;20207;-91
2021/01/15 02:20:45;;;;;;;2.50;2.10;;;1.50;99.90;;;;;;4986660;28;20286;-91
2021/01/15 02:23:40;;;;;;;2.83;2.63;;;1.50;99.90;;;;;;4998682;28;20218;-90
2021/01/15 02:26:12;;;;;;;3.07;1.77;;;1.50;99.90;;;;;;4985877;28;20286;-92
2021/01/15 02:29:00;;;;;;;1.40;1.30;;;1.60;99.90;;;;;;5003470;28;20219;-92
2021/01/15 02:31:44;;;;;;;2.90;2.33;;;1.60;99.90;;;;;;4984939;28;20590;-91
2021/01/15 02:34:21;;;;;;;2.23;1.07;;;1.60;99.90;;;;;;5002077;28;20230;-92
2021/01/15 02:37:05;;;;;;;4.73;1.37;;;1.60;99.90;;;;;;5003040;28;20239;-92
2021/01/15 02:39:58;;;;;;;1.30;1.20;;;1.70;99.90;;;;;;4985199;28;20253;-91
2021/01/15 02:42:25;;;;;;;1.60;1.50;;;1.70;99.90;;;;;;4999438;28;20215;-91
2021/01/15 02:44:53;;;;;;;2.60;1.70;;;1.70;99.90;;;;;;5001767;28;20722;-91
2021/01/15 02:47:24;;;;;;;3.47;2.40;;;1.70;99.90;;;;;;5004255;28;20282;-91
2021/01/15 02:49:53;;;;;;;1.37;1.27;;;1.80;99.90;;;;;;4986668;28;20227;-90
2021/01/15 02:52:19;;;;;;;1.07;1.07;;;1.80;99.90;;;;;;4984855;28;20242;-91
2021/01/15 02:54:44;;;;;;;2.60;1.63;;;1.80;99.90;;;;;;4968795;28;20369;-91
2021/01/15 02:57:10;;;;;;;1.10;0.83;;;1.80;99.90;;;;;;4967951;28;20242;-91
2021/01/15 02:59:36;;;;;;;5.00;2.87;;;1.90;99.90;;;;;;5003658;28;20202;-91
2021/01/15 03:02:14;;;;;;;2.63;2.30;;;1.90;99.90;;;;;;5002147;28;20602;-91
2021/01/15 03:04:46;;;;;;;1.80;1.70;;;1.90;99.90;;;;;;4998608;28;20293;-91
2021/01/15 03:07:13;;;;;;;6.23;2.47;;;1.90;99.90;;;;;;4996316;28;21052;-91
2021/01/15 03:09:43;;;;;;;2.00;1.90;;;1.90;99.90;;;;;;4963180;28;20266;-91
2021/01/15 03:12:10;;;;;;;1.40;1.30;;;2.00;99.90;;;;;;4978971;28;20234;-91
2021/01/15 03:14:38;;;;;;;2.03;1.83;;;2.10;99.90;;;;;;4983629;28;20585;-92
2021/01/15 03:17:08;;;;;;;2.40;1.63;;;2.10;99.90;;;;;;4982983;28;20306;-91
2021/01/15 03:19:36;;;;;;;2.23;1.83;;;2.00;99.90;;;;;;4982722;28;20324;-92
2021/01/15 03:22:19;;;;;;;1.80;1.03;;;2.00;99.90;;;;;;4984172;28;20238;-91
2021/01/15 03:24:58;;;;;;;1.13;1.10;;;1.90;99.90;;;;;;5000672;28;20211;-92
2021/01/15 03:27:46;;;;;;;3.33;1.67;;;1.90;99.90;;;;;;5000237;28;20231;-92
2021/01/15 03:30:15;;;;;;;2.40;1.87;;;1.90;99.90;;;;;;5001427;28;20219;-92
2021/01/15 03:32:41;;;;;;;2.37;1.53;;;1.90;99.90;;;;;;5001826;28;20195;-91
2021/01/15 03:35:07;;;;;;;1.00;0.97;;;1.90;99.90;;;;;;4972922;28;20579;-91
2021/01/15 03:37:34;;;;;;;2.00;1.90;;;1.90;99.90;;;;;;4989175;28;20230;-91
2021/01/15 03:40:00;;;;;;;1.67;1.57;;;1.90;99.90;;;;;;4988380;28;20231;-91
2021/01/15 03:42:26;;;;;;;1.73;1.67;;;1.90;99.90;;;;;;4986733;28;20711;-92
2021/01/15 03:44:52;;;;;;;2.30;1.70;;;2.00;99.90;;;;;;4988061;28;20194;-92
2021/01/15 03:47:18;;;;;;;4.70;1.83;;;2.00;99.90;;;;;;4989617;28;20195;-91
2021/01/15 03:49:43;;;;;;;2.30;2.20;;;2.00;99.90;;;;;;4987174;28;20782;-92
2021/01/15 03:52:10;;;;;;;2.53;2.37;;;2.10;99.90;;;;;;4987875;28;20231;-91
2021/01/15 03:54:37;;;;;;;2.53;2.00;;;2.10;99.90;;;;;;4988775;28;20246;-92
2021/01/15 03:57:04;;;;;;;2.23;1.60;;;2.10;99.90;;;;;;4986782;28;20258;-93
2021/01/15 03:59:29;;;;;;;1.90;1.80;;;2.10;99.90;;;;;;5006789;28;20257;-92
2021/01/15 04:01:55;;;;;;;2.70;2.50;;;2.00;99.90;;;;;;4971905;28;20219;-92
2021/01/15 04:04:21;;;;;;;5.27;2.13;;;2.00;99.90;;;;;;4971954;28;20684;-92
2021/01/15 04:06:46;;;;;;;1.50;1.47;;;2.00;99.90;;;;;;4988382;28;20226;-91
2021/01/15 04:09:12;;;;;;;2.73;1.70;;;2.10;99.90;;;;;;4970323;28;20223;-91
2021/01/15 04:11:38;;;;;;;1.60;1.20;;;2.10;99.90;;;;;;4971050;28;20294;-89
2021/01/15 04:14:04;;;;;;;2.77;1.77;;;2.10;99.90;;;;;;4973235;28;20269;-91
2021/01/15 04:16:29;;;;;;;2.47;2.27;;;2.10;99.90;;;;;;4970966;28;20226;-92
2021/01/15 04:18:55;;;;;;;1.60;1.50;;;2.10;99.90;;;;;;4987685;28;20219;-91
2021/01/15 04:21:21;;;;;;;1.90;1.80;;;2.10;99.90;;;;;;4986343;28;20222;-91
2021/01/15 04:23:46;;;;;;;6.63;1.90;;;2.10;99.90;;;;;;4986785;28;20671;-92
2021/01/15 04:26:19;;;;;;;2.77;1.67;;;2.10;99.90;;;;;;4988119;28;21299;-92
2021/01/15 04:28:45;;;;;;;1.20;0.93;;;2.10;99.90;;;;;;4971111;28;20215;-92
2021/01/15 04:31:15;;;;;;;3.77;2.10;;;2.10;99.90;;;;;;4987367;28;20767;-91
2021/01/15 04:33:41;;;;;;;3.00;1.57;;;2.10;99.90;;;;;;4970974;28;20223;-91
2021/01/15 04:36:11;;;;;;;4.33;2.20;;;2.10;99.90;;;;;;4971707;28;20399;-91
2021/01/15 04:38:40;;;;;;;2.43;1.77;;;2.10;99.90;;;;;;4988561;28;20262;-91
2021/01/15 04:41:06;;;;;;;1.33;1.17;;;2.10;99.90;;;;;;5001835;28;20230;-92
2021/01/15 04:43:35;;;;;;;3.33;2.97;;;2.10;99.90;;;;;;4987435;28;20211;-92
2021/01/15 04:46:03;;;;;;;2.63;2.50;;;2.10;99.90;;;;;;4986204;28;20207;-91
2021/01/15 04:48:32;;;;;;;3.33;2.37;;;2.00;99.90;;;;;;5003709;28;20293;-92
2021/01/15 04:50:59;;;;;;;1.33;1.33;;;2.00;99.90;;;;;;4986934;28;20313;-91
2021/01/15 04:53:27;;;;;;;2.03;1.83;;;2.10;99.90;;;;;;4988132;28;20184;-92
2021/01/15 04:55:58;;;;;;;8.40;2.77;;;2.00;99.90;;;;;;4971123;28;20238;-91
2021/01/15 04:58:26;;;;;;;4.60;1.70;;;2.00;99.90;;;;;;4986968;28;20269;-92
2021/01/15 05:00:59;;;;;;;1.47;1.37;;;2.00;99.90;;;;;;4987078;28;20223;-92
2021/01/15 05:03:26;;;;;;;3.57;3.27;;;2.10;99.90;;;;;;4971216;28;20229;-91
2021/01/15 05:06:06;;;;;;;2.13;1.93;;;2.00;99.90;;;;;;4987170;28;20175;-90
2021/01/15 05:08:36;;;;;;;2.60;2.33;;;2.10;99.90;;;;;;4987965;28;20985;-92
2021/01/15 05:11:03;;;;;;;2.63;2.43;;;2.10;99.90;;;;;;4986721;28;20725;-90
2021/01/15 05:13:35;;;;;;;2.10;1.90;;;2.10;99.90;;;;;;4971449;28;20223;-90
2021/01/15 05:16:03;;;;;;;2.33;1.90;;;2.10;99.90;;;;;;4986895;28;20685;-89
2021/01/15 05:18:34;;;;;;;2.37;1.13;;;2.10;99.90;;;;;;4969981;28;20235;-90
2021/01/15 05:21:00;;;;;;;2.40;2.27;;;2.20;99.90;;;;;;4986361;28;20223;-91
2021/01/15 05:23:25;;;;;;;2.17;2.07;;;2.20;99.90;;;;;;4988062;28;20520;-90
2021/01/15 05:25:51;;;;;;;3.30;2.27;;;2.20;99.90;;;;;;4986636;28;20223;-90
2021/01/15 05:28:18;;;;;;;1.87;1.73;;;2.20;99.90;;;;;;5003460;28;20246;-92
2021/01/15 05:30:45;;;;;;;3.77;2.43;;;2.20;99.90;;;;;;5002665;28;20321;-92
2021/01/15 05:33:15;;;;;;;1.93;1.83;;;2.20;99.90;;;;;;4985567;28;20229;-91
2021/01/15 05:35:53;;;;;;;1.13;1.03;;;2.10;99.90;;;;;;5003404;28;20175;-92
2021/01/15 05:38:20;;;;;;;2.47;2.27;;;2.10;99.90;;;;;;4987375;28;20793;-92
2021/01/15 05:40:51;;;;;;;3.00;1.73;;;2.10;99.90;;;;;;5001515;28;20231;-92
2021/01/15 05:43:19;;;;;;;2.07;1.97;;;2.10;99.90;;;;;;5002083;28;20227;-91
2021/01/15 05:46:09;;;;;;;3.47;1.53;;;2.10;99.90;;;;;;5003942;28;20219;-92
2021/01/15 05:48:36;;;;;;;3.83;1.80;;;2.10;99.90;;;;;;4985446;28;20323;-92
2021/01/15 05:51:02;;;;;;;2.17;1.87;;;2.20;99.90;;;;;;4970487;28;20231;-92
2021/01/15 05:53:43;;;;;;;1.10;1.00;;;2.20;99.90;;;;;;4987122;28;20188;-93
2021/01/15 05:56:09;;;;;;;2.63;1.20;;;2.20;99.90;;;;;;5001989;28;20258;-92
2021/01/15 05:58:36;;;;;;;2.60;2.33;;;2.20;99.90;;;;;;5002641;28;20254;-92
2021/01/15 06:01:02;;;;;;;1.40;1.30;;;2.20;99.90;;;;;;4986196;28;20227;-91
2021/01/15 06:03:27;;;;;;;1.60;1.50;;;2.20;99.90;;;;;;4985397;28;21252;-92
2021/01/15 06:05:54;;;;;;;2.40;1.30;;;2.20;99.90;;;;;;4985534;28;20778;-91
2021/01/15 06:08:20;;;;;;;4.33;2.63;;;2.20;99.90;;;;;;4971249;28;20199;-91
2021/01/15 06:10:47;;;;;;;1.40;1.30;;;2.20;99.90;;;;;;4985018;28;20235;-92
2021/01/15 06:13:39;;;;;;;5.50;2.00;;;2.30;99.90;;;;;;4969281;28;20219;-92
2021/01/15 06:16:05;;;;;;;2.33;2.20;;;2.30;99.90;;;;;;4985321;28;20219;-93
2021/01/15 06:18:32;;;;;;;3.07;2.77;;;2.30;99.90;;;;;;4985236;28;20238;-92
2021/01/15 06:21:08;;;;;;;4.13;1.90;;;2.40;99.90;;;;;;5002454;28;21262;-93
2021/01/15 06:23:40;;;;;;;3.37;1.43;;;2.40;99.90;;;;;;4971047;28;20195;-92
2021/01/15 06:26:10;;;;;;;2.67;2.43;;;2.40;99.90;;;;;;4986016;28;20219;-92
2021/01/15 06:28:38;;;;;;;5.83;2.87;;;2.30;99.90;;;;;;4986394;28;20624;-93
2021/01/15 06:31:08;;;;;;;1.07;1.07;;;2.30;99.90;;;;;;4985829;28;20219;-93
2021/01/15 06:33:34;;;;;;;1.40;1.17;;;2.30;99.90;;;;;;5001490;28;20263;-92
2021/01/15 06:36:00;;;;;;;2.70;2.43;;;2.30;99.90;;;;;;4984646;28;20250;-92
2021/01/15 06:38:28;;;;;;;2.73;2.57;;;2.30;99.90;;;;;;4985927;28;20256;-92
2021/01/15 06:40:55;;;;;;;1.80;1.70;;;2.30;99.90;;;;;;4969388;28;20281;-92
2021/01/15 06:43:33;;;;;;;1.30;1.30;;;2.30;99.90;;;;;;5001347;28;20211;-93
2021/01/15 06:46:05;;;;;;;1.17;1.03;;;2.30;99.90;;;;;;4968911;28;20218;-92
2021/01/15 06:48:38;;;;;;;1.17;1.10;;;2.30;99.90;;;;;;5002275;28;20227;-92
2021/01/15 06:51:05;;;;;;;1.20;1.17;;;2.30;99.90;;;;;;5000993;28;20233;-92
2021/01/15 06:53:38;;;;;;;0.90;0.90;;;2.40;99.90;;;;;;5004269;28;20667;-93
2021/01/15 06:56:12;;;;;;;4.43;2.63;;;2.50;99.90;;;;;;4985541;28;20234;-92
2021/01/15 06:58:38;;;;;;;2.00;1.83;;;2.50;99.90;;;;;;5001125;28;20234;-92
2021/01/15 07:01:10;;;;;;;3.97;3.50;;;2.50;99.90;;;;;;4983779;28;20344;-93
2021/01/15 07:03:54;;;;;;;1.33;1.23;;;2.40;99.90;;;;;;4985008;28;20223;-92
2021/01/15 07:06:44;;;;;;;3.40;1.67;;;2.30;99.90;;;;;;5000709;28;20250;-92
2021/01/15 07:09:10;;;;;;;1.57;1.37;;;2.30;99.90;;;;;;4998635;28;20615;-93
2021/01/15 07:11:42;;;;;;;1.23;0.80;;;2.40;99.90;;;;;;4953405;28;20254;-92
2021/01/15 07:14:07;;;;;;;1.17;1.03;;;2.40;99.90;;;;;;4985918;28;20279;-93
2021/01/15 07:16:36;;;;;;;1.73;1.33;;;2.40;99.90;;;;;;4985012;28;20390;-92
2021/01/15 07:19:05;;;;;;;1.80;1.70;;;2.40;99.90;;;;;;4984379;28;20211;-93
2021/01/15 07:21:36;;;;;;;1.70;1.60;;;2.40;99.90;;;;;;4984942;28;20231;-91
2021/01/15 07:24:09;;;;;;;0.83;0.83;;;2.40;99.90;;;;;;5001522;28;20230;-92
2021/01/15 07:26:41;;;;;;;2.27;2.07;;;2.40;99.90;;;;;;4970179;28;20286;-92
2021/01/15 07:29:14;;;;;;;1.40;1.10;;;2.30;99.90;;;;;;4969656;28;20234;-93
2021/01/15 07:31:45;;;;;;;1.93;1.83;;;2.30;99.90;;;;;;4984961;28;20219;-93
2021/01/15 07:34:17;;;;;;;2.00;1.60;;;2.20;99.90;;;;;;4984437;28;20273;-91
2021/01/15 07:36:43;;;;;;;1.23;1.10;;;2.10;99.90;;;;;;5000375;28;20337;-93
2021/01/15 07:39:14;;;;;;;1.93;1.70;;;2.00;99.90;;;;;;5000563;28;20227;-92
2021/01/15 07:41:52;;;;;;;2.50;2.07;;;1.90;99.90;;;;;;5000210;28;20195;-92
2021/01/15 07:44:21;;;;;;;2.33;2.13;;;1.90;99.90;;;;;;4970202;28;20186;-92
2021/01/15 07:46:51;;;;;;;2.47;1.43;;;1.90;99.90;;;;;;4999995;28;20231;-91
2021/01/15 07:49:17;;;;;;;2.20;2.10;;;1.90;99.90;;;;;;4984002;28;20219;-92
2021/01/15 07:51:43;;;;;;;1.70;1.60;;;1.80;99.90;;;;;;4984714;28;20226;-93
2021/01/15 07:54:09;;;;;;;1.33;1.23;;;1.80;99.90;;;;;;5000168;28;20222;-92
2021/01/15 07:56:35;;;;;;;2.53;1.17;;;1.80;99.90;;;;;;4985870;28;20215;-90
2021/01/15 07:59:01;;;;;;;1.10;1.00;;;1.90;99.90;;;;;;4984714;28;20766;-92
2021/01/15 08:01:27;;;;;;;8.40;2.20;;;1.90;99.90;;;;;;5001266;28;20219;-91
2021/01/15 08:03:57;;;;;;;2.23;1.73;;;2.00;99.90;;;;;;4968340;28;20223;-93
2021/01/15 08:06:24;;;;;;;2.50;2.30;;;2.00;99.90;;;;;;4984602;28;20289;-92
2021/01/15 08:09:00;;;;;;;1.60;1.50;;;2.10;99.90;;;;;;5001708;28;20183;-91
2021/01/15 08:11:30;;;;;;;1.97;1.87;;;2.10;99.90;;;;;;5001927;28;20235;-92
2021/01/15 08:14:13;;;;;;;2.60;1.53;;;2.10;99.90;;;;;;5001211;28;20223;-91
2021/01/15 08:16:41;;;;;;;1.13;1.07;;;2.10;99.90;;;;;;4984193;28;20297;-91
2021/01/15 08:19:12;;;;;;;0.83;0.83;;;2.10;99.90;;;;;;4999777;28;20306;-90
2021/01/15 08:21:40;;;;;;;0.80;0.80;;;2.10;99.90;;;;;;5003031;28;21080;-91
2021/01/15 08:24:06;;;;;;;1.37;1.37;;;2.20;99.90;;;;;;5004948;28;20237;-91
2021/01/15 08:26:38;;;;;;;1.93;1.83;;;2.30;99.90;;;;;;4988519;28;20187;-90
2021/01/15 08:29:04;;;;;;;1.43;1.43;;;2.30;99.90;;;;;;4966888;28;20227;-90
2021/01/15 08:31:30;;;;;;;2.10;1.13;;;2.40;99.90;;;;;;4966242;28;20218;-89
2021/01/15 08:34:13;;;;;;;1.27;1.27;;;2.40;99.90;;;;;;4976824;28;20228;-90
2021/01/15 08:36:44;;;;;;;2.20;2.10;;;2.40;99.90;;;;;;4975128;28;20381;-89
2021/01/15 08:39:11;;;;;;;1.97;1.30;;;2.50;99.90;;;;;;4976993;28;20231;-89
2021/01/15 08:41:37;;;;;;;2.20;1.30;;;2.50;99.90;;;;;;4977935;28;20649;-90
2021/01/15 08:44:04;;;;;;;1.13;1.13;;;2.50;99.90;;;;;;4986720;28;20215;-89
2021/01/15 08:46:32;;;;;;;1.77;1.67;;;2.50;99.90;;;;;;4986994;28;20822;-92
2021/01/15 08:48:59;;;;;;;2.70;2.50;;;2.50;99.90;;;;;;4969839;28;20223;-90
2021/01/15 08:51:28;;;;;;;0.83;0.83;;;2.50;99.90;;;;;;4986695;28;20215;-89
2021/01/15 08:54:04;;;;;;;2.37;1.10;;;2.50;99.90;;;;;;5002744;28;20194;-89
2021/01/15 08:56:36;;;;;;;1.53;1.43;;;2.50;99.90;;;;;;4989079;28;20676;-90
2021/01/15 08:59:05;;;;;;;0.80;0.80;;;2.50;99.90;;;;;;4994013;28;20252;-91
2021/01/15 09:01:34;;;;;;;1.60;0.83;;;2.50;99.90;;;;;;4970604;28;20298;-92
2021/01/15 09:04:14;;;;;;;1.73;1.50;;;2.40;99.90;;;;;;5003336;28;20219;-90
2021/01/15 09:06:41;;;;;;;1.43;1.33;;;2.40;99.90;;;;;;5002139;28;20230;-90
2021/01/15 09:09:11;;;;;;;3.23;2.37;;;2.40;99.90;;;;;;5003353;28;20219;-89
2021/01/15 09:11:39;;;;;;;16.53;2.43;;;2.50;99.90;;;;;;4989352;28;20223;-90
2021/01/15 09:14:07;;;;;;;1.23;1.23;;;2.50;99.90;;;;;;4950145;28;20292;-87
2021/01/15 09:16:33;;;;;;;3.83;1.70;;;2.60;99.90;;;;;;4981808;28;20327;-90
2021/01/15 09:19:07;;;;;;;7.10;1.30;;;2.60;99.90;;;;;;4983387;28;20228;-89
2021/01/15 09:21:44;;;;;;;2.83;1.60;;;2.60;99.90;;;;;;4983334;28;20222;-89
2021/01/15 09:24:10;;;;;;;2.17;1.87;;;2.50;99.90;;;;;;4982886;28;20610;-87
2021/01/15 09:26:36;;;;;;;1.27;1.10;;;2.40;99.90;;;;;;4982443;28;20196;-89
2021/01/15 09:29:01;;;;;;;3.10;1.70;;;2.50;99.90;;;;;;4965627;28;20220;-91
2021/01/15 09:31:27;;;;;;;1.33;1.23;;;2.60;99.90;;;;;;4946688;28;20680;-89
2021/01/15 09:33:53;;;;;;;1.83;1.70;;;2.60;99.90;;;;;;4964154;28;20215;-90
2021/01/15 09:36:20;;;;;;;3.47;2.10;;;2.70;99.90;;;;;;4965940;28;20238;-89
2021/01/15 09:38:46;;;;;;;2.30;1.67;;;2.70;99.90;;;;;;4981768;28;20207;-90
2021/01/15 09:41:12;;;;;;;3.20;2.90;;;2.80;99.90;;;;;;4961473;28;20782;-88
2021/01/15 09:43:37;;;;;;;4.43;3.00;;;2.80;99.90;;;;;;4961481;28;20708;-89
2021/01/15 09:46:03;;;;;;;1.70;1.60;;;2.80;99.90;;;;;;4944669;28;20914;-87
2021/01/15 09:48:29;;;;;;;4.97;2.83;;;2.90;99.90;;;;;;4945710;28;20235;-89
2021/01/15 09:50:54;;;;;;;3.67;1.90;;;2.90;99.90;;;;;;4964015;28;20245;-89
2021/01/15 09:53:20;;;;;;;7.53;2.50;;;3.00;99.90;;;;;;4949794;28;20192;-88
2021/01/15 09:55:46;;;;;;;3.20;2.90;;;3.00;99.90;;;;;;4963559;28;20232;-87
2021/01/15 09:58:11;;;;;;;2.80;2.60;;;3.00;99.90;;;;;;4980781;28;20306;-88
2021/01/15 10:00:39;;;;;;;5.27;2.90;;;3.00;99.90;;;;;;4945678;28;20292;-88
2021/01/15 10:03:05;;;;;;;4.43;4.03;;;3.00;99.90;;;;;;4980676;28;20224;-87
2021/01/15 10:05:31;;;;;;;2.40;2.17;;;3.10;99.90;;;;;;4965874;28;20196;-88
2021/01/15 10:07:56;;;;;;;8.00;3.83;;;3.10;99.90;;;;;;4948708;28;20238;-88
2021/01/15 10:10:22;;;;;;;2.67;2.50;;;3.10;99.90;;;;;;4969063;28;20247;-87
2021/01/15 10:12:48;;;;;;;4.47;2.07;;;3.10;99.90;;;;;;4996929;28;20301;-86
2021/01/15 10:15:14;;;;;;;3.00;1.90;;;3.00;99.90;;;;;;5000324;28;20219;-88
2021/01/15 10:17:46;;;;;;;1.53;1.43;;;3.00;99.90;;;;;;4985129;28;20219;-88
2021/01/15 10:20:13;;;;;;;3.03;2.67;;;3.00;99.90;;;;;;5003062;28;20226;-90
2021/01/15 10:22:39;;;;;;;3.77;2.67;;;3.00;99.90;;;;;;5001971;28;20215;-88
2021/01/15 10:25:05;;;;;;;1.93;1.73;;;3.00;99.90;;;;;;5005361;28;20227;-89
2021/01/15 10:27:31;;;;;;;4.57;2.27;;;3.00;99.90;;;;;;4990152;28;20231;-89
2021/01/15 10:29:57;;;;;;;4.00;3.70;;;3.00;99.90;;;;;;4984810;28;20190;-88
2021/01/15 10:32:22;;;;;;;3.60;3.23;;;3.10;99.90;;;;;;5002168;28;20195;-88
2021/01/15 10:34:48;;;;;;;3.43;2.80;;;3.20;99.90;;;;;;5001265;28;20230;-88
2021/01/15 10:37:14;;;;;;;3.00;2.80;;;3.20;99.90;;;;;;4983908;28;20264;-88
2021/01/15 10:39:39;;;;;;;3.17;2.87;;;3.20;99.90;;;;;;4984394;28;20685;-88
2021/01/15 10:42:05;;;;;;;2.30;2.13;;;3.10;99.90;;;;;;4995155;28;20215;-88
2021/01/15 10:44:31;;;;;;;2.70;2.20;;;3.10;99.90;;;;;;4964563;28;20609;-88
2021/01/15 10:46:57;;;;;;;3.70;1.93;;;3.10;99.90;;;;;;4961475;28;20663;-87
2021/01/15 10:49:23;;;;;;;2.60;2.47;;;3.20;99.90;;;;;;4961027;28;20220;-88
2021/01/15 10:51:52;;;;;;;2.60;2.40;;;3.20;99.90;;;;;;4990004;28;20267;-88
2021/01/15 10:54:17;;;;;;;4.13;3.07;;;3.20;99.90;;;;;;5000899;28;20227;-88
2021/01/15 10:56:45;;;;;;;3.17;2.87;;;3.20;99.90;;;;;;5001019;28;20546;-89
2021/01/15 10:59:11;;;;;;;2.77;2.53;;;3.20;99.90;;;;;;5003566;28;20203;-88
2021/01/15 11:01:51;;;;;;;2.90;2.63;;;3.30;99.90;;;;;;4985435;28;20230;-87
2021/01/15 11:04:18;;;;;;;3.87;2.83;;;3.30;99.90;;;;;;5000756;28;20207;-88
2021/01/15 11:06:46;;;;;;;2.33;2.13;;;3.30;99.90;;;;;;4983713;28;20222;-87
2021/01/15 11:09:16;;;;;;;6.03;2.83;;;3.40;99.90;;;;;;4998813;28;20730;-88
2021/01/15 11:11:48;;;;;;;2.97;2.67;;;3.50;99.90;;;;;;4984334;28;20239;-87
2021/01/15 11:14:15;;;;;;;2.67;1.77;;;3.50;99.90;;;;;;5002800;28;20334;-89
2021/01/15 11:16:41;;;;;;;3.03;2.63;;;3.60;99.90;;;;;;4984133;28;20696;-89
2021/01/15 11:19:07;;;;;;;2.20;2.10;;;3.60;99.90;;;;;;4984591;28;20223;-89
2021/01/15 11:21:33;;;;;;;5.57;2.90;;;3.60;99.90;;;;;;4966420;28;20218;-89
2021/01/15 11:23:59;;;;;;;3.23;2.67;;;3.60;99.90;;;;;;5001976;28;20274;-88
2021/01/15 11:26:26;;;;;;;2.40;1.93;;;3.70;99.90;;;;;;4970073;28;20242;-89
2021/01/15 11:29:00;;;;;;;4.07;2.70;;;3.80;99.90;;;;;;5001276;28;20277;-88
2021/01/15 11:31:26;;;;;;;3.70;2.33;;;3.80;99.90;;;;;;5000417;28;20225;-88
2021/01/15 11:33:53;;;;;;;4.67;3.30;;;3.80;99.90;;;;;;5000292;28;20238;-90
2021/01/15 11:36:19;;;;;;;3.50;3.20;;;3.90;99.90;;;;;;4984884;28;20274;-90
2021/01/15 11:38:46;;;;;;;2.97;2.60;;;4.00;99.90;;;;;;4982809;28;20313;-89
2021/01/15 11:41:16;;;;;;;3.70;3.27;;;4.10;99.90;;;;;;4999487;28;20200;-90
2021/01/15 11:43:43;;;;;;;4.40;2.27;;;4.20;99.90;;;;;;4983640;28;20227;-89
2021/01/15 11:46:09;;;;;;;2.97;2.43;;;4.10;99.90;;;;;;5001780;28;20219;-90
2021/01/15 11:48:36;;;;;;;6.83;2.13;;;4.00;99.90;;;;;;5001762;28;20252;-90
2021/01/15 11:51:02;;;;;;;3.60;3.40;;;3.90;99.90;;;;;;5000844;28;20218;-88
2021/01/15 11:53:37;;;;;;;2.17;1.63;;;3.80;99.90;;;;;;5002108;28;20179;-90
2021/01/15 11:56:04;;;;;;;2.03;1.57;;;3.70;99.90;;;;;;4999067;28;21089;-91
2021/01/15 11:58:31;;;;;;;11.87;2.60;;;3.60;99.90;;;;;;4980173;28;20238;-90
2021/01/15 12:00:57;;;;;;;7.57;2.03;;;3.70;99.90;;;;;;4994846;28;20227;-91
2021/01/15 12:03:23;;;;;;;2.60;2.33;;;3.80;99.90;;;;;;5006723;28;20222;-90
2021/01/15 12:05:50;;;;;;;1.93;1.77;;;3.80;99.90;;;;;;4970953;28;20184;-90
2021/01/15 12:08:17;;;;;;;2.53;2.33;;;3.90;99.90;;;;;;4972214;28;20195;-90
2021/01/15 12:10:43;;;;;;;3.60;2.50;;;4.00;99.90;;;;;;4985487;28;20241;-91
2021/01/15 12:13:08;;;;;;;2.63;2.43;;;3.90;99.90;;;;;;4974602;28;20220;-90
2021/01/15 12:15:34;;;;;;;2.47;2.00;;;3.90;99.90;;;;;;4955783;28;20306;-90
2021/01/15 12:18:00;;;;;;;1.43;1.33;;;3.90;99.90;;;;;;4947587;28;20246;-91
2021/01/15 12:20:26;;;;;;;4.23;1.53;;;3.90;99.90;;;;;;4976164;28;20187;-90
2021/01/15 12:22:51;;;;;;;2.20;1.30;;;3.90;99.90;;;;;;4954203;28;20270;-92
2021/01/15 12:25:17;;;;;;;2.47;1.63;;;3.90;99.90;;;;;;4971491;28;20224;-89
2021/01/15 12:27:43;;;;;;;2.10;1.90;;;4.00;99.90;;;;;;4995105;28;20215;-90
2021/01/15 12:30:10;;;;;;;3.57;2.40;;;4.00;99.90;;;;;;5008976;28;20251;-90
2021/01/15 12:32:35;;;;;;;1.73;1.63;;;4.00;99.90;;;;;;4976919;28;20253;-90
2021/01/15 12:37:32;;;;;;;3.37;1.90;;;4.00;99.90;;;;;;4999307;23;20247;-92
2021/01/15 12:40:28;;;;;;;3.30;2.17;;;4.00;99.90;;;;;;4975218;28;20221;-95
2021/01/15 12:42:54;;;;;;;3.43;3.17;;;4.00;99.90;;;;;;4994058;23;20233;-94
2021/01/15 12:45:22;;;;;;;2.90;2.57;;;4.00;99.90;;;;;;5254948;23;20263;-96
2021/01/15 12:47:51;;;;;;;1.80;1.33;;;4.00;99.90;;;;;;4972453;28;20195;-95
2021/01/15 12:50:19;;;;;;;3.40;2.30;;;4.10;99.90;;;;;;4963769;28;20197;-93
2021/01/15 12:52:45;;;;;;;5.20;2.83;;;4.10;99.90;;;;;;4980605;28;20744;-82
2021/01/15 12:55:11;;;;;;;1.97;1.87;;;4.20;99.90;;;;;;4949813;28;20839;-89
2021/01/15 12:57:38;;;;;;;3.43;2.00;;;4.20;99.90;;;;;;4946797;28;20260;-89
2021/01/15 13:00:05;;;;;;;2.43;2.33;;;4.20;99.90;;;;;;4979595;28;20232;-90
2021/01/15 13:02:30;;;;;;;1.67;1.57;;;4.30;99.90;;;;;;4965244;28;20196;-88
2021/01/15 13:04:56;;;;;;;1.73;1.63;;;4.30;99.90;;;;;;4931734;28;20576;-90
2021/01/15 13:07:22;;;;;;;2.33;1.87;;;4.30;99.90;;;;;;4962338;28;20236;-90